sensor_id;sensor_type;location;lat;lon;timestamp;pressure;altitude;pressure_sealevel;temperature;humidity
70011;BME280;59543;37.950;-122.338;2023-10-19T00:01:21;100979.81;;;29.58;32.00
70011;BME280;59543;37.950;-122.338;2023-10-19T00:03:52;100983.13;;;29.55;32.21
70011;BME280;59543;37.950;-122.338;2023-10-19T00:06:22;100985.88;;;29.60;32.55
70011;BME280;59543;37.950;-122.338;2023-10-19T00:08:51;100975.31;;;29.47;32.62
70011;BME280;59543;37.950;-122.338;2023-10-19T00:11:18;100978.03;;;29.36;32.86
70011;BME280;59543;37.950;-122.338;2023-10-19T00:13:49;100976.88;;;29.32;32.94
70011;BME280;59543;37.950;-122.338;2023-10-19T00:16:16;100975.22;;;29.31;33.15
70011;BME280;59543;37.950;-122.338;2023-10-19T00:18:45;100974.06;;;29.22;33.70
70011;BME280;59543;37.950;-122.338;2023-10-19T00:21:15;100972.41;;;29.26;34.03
70011;BME280;59543;37.950;-122.338;2023-10-19T00:23:57;100974.84;;;29.17;34.04
70011;BME280;59543;37.950;-122.338;2023-10-19T00:26:27;100977.03;;;29.10;34.10
70011;BME280;59543;37.950;-122.338;2023-10-19T00:28:56;100975.22;;;28.94;34.20
70011;BME280;59543;37.950;-122.338;2023-10-19T00:31:23;100969.91;;;28.82;34.70
70011;BME280;59543;37.950;-122.338;2023-10-19T00:33:50;100975.63;;;28.76;34.91
70011;BME280;59543;37.950;-122.338;2023-10-19T00:36:20;100978.91;;;28.67;36.02
70011;BME280;59543;37.950;-122.338;2023-10-19T00:38:48;100977.56;;;28.75;35.58
70011;BME280;59543;37.950;-122.338;2023-10-19T00:41:16;100978.56;;;28.59;35.23
70011;BME280;59543;37.950;-122.338;2023-10-19T00:44:00;100973.13;;;28.42;35.04
70011;BME280;59543;37.950;-122.338;2023-10-19T00:46:33;100976.66;;;28.37;35.49
70011;BME280;59543;37.950;-122.338;2023-10-19T00:49:04;100970.66;;;28.45;34.57
70011;BME280;59543;37.950;-122.338;2023-10-19T00:51:47;100967.78;;;28.35;35.46
70011;BME280;59543;37.950;-122.338;2023-10-19T00:54:39;100968.31;;;28.32;35.67
70011;BME280;59543;37.950;-122.338;2023-10-19T00:57:18;100965.13;;;28.18;35.98
70011;BME280;59543;37.950;-122.338;2023-10-19T00:59:58;100964.81;;;28.15;35.97
70011;BME280;59543;37.950;-122.338;2023-10-19T01:02:38;100971.97;;;27.89;36.06
70011;BME280;59543;37.950;-122.338;2023-10-19T01:05:16;100976.47;;;27.95;36.42
70011;BME280;59543;37.950;-122.338;2023-10-19T01:07:47;100978.72;;;27.76;37.53
70011;BME280;59543;37.950;-122.338;2023-10-19T01:10:21;100971.63;;;27.80;36.68
70011;BME280;59543;37.950;-122.338;2023-10-19T01:12:49;100973.47;;;27.74;36.46
70011;BME280;59543;37.950;-122.338;2023-10-19T01:15:19;100976.88;;;27.59;37.72
70011;BME280;59543;37.950;-122.338;2023-10-19T01:17:56;100975.97;;;27.54;36.93
70011;BME280;59543;37.950;-122.338;2023-10-19T01:20:27;100978.94;;;27.30;38.32
70011;BME280;59543;37.950;-122.338;2023-10-19T01:25:44;100976.31;;;26.85;40.75
70011;BME280;59543;37.950;-122.338;2023-10-19T01:28:28;100975.97;;;26.64;39.90
70011;BME280;59543;37.950;-122.338;2023-10-19T01:31:17;100978.16;;;26.34;41.72
70011;BME280;59543;37.950;-122.338;2023-10-19T01:33:49;100974.53;;;26.16;41.85
70011;BME280;59543;37.950;-122.338;2023-10-19T01:36:16;100970.38;;;26.02;43.25
70011;BME280;59543;37.950;-122.338;2023-10-19T01:38:51;100973.22;;;25.78;44.37
70011;BME280;59543;37.950;-122.338;2023-10-19T01:41:22;100975.75;;;25.68;44.13
70011;BME280;59543;37.950;-122.338;2023-10-19T01:43:51;100975.56;;;25.58;44.23
70011;BME280;59543;37.950;-122.338;2023-10-19T01:46:22;100982.53;;;25.37;45.01
70011;BME280;59543;37.950;-122.338;2023-10-19T01:48:57;100979.09;;;25.18;45.46
70011;BME280;59543;37.950;-122.338;2023-10-19T01:51:27;100977.34;;;25.05;46.37
70011;BME280;59543;37.950;-122.338;2023-10-19T01:53:55;100980.84;;;25.13;46.48
70011;BME280;59543;37.950;-122.338;2023-10-19T01:56:22;100978.78;;;24.84;46.39
70011;BME280;59543;37.950;-122.338;2023-10-19T01:58:49;100982.47;;;24.78;47.37
70011;BME280;59543;37.950;-122.338;2023-10-19T02:01:18;100985.66;;;24.52;47.66
70011;BME280;59543;37.950;-122.338;2023-10-19T02:03:48;100987.28;;;24.71;47.26
70011;BME280;59543;37.950;-122.338;2023-10-19T02:06:35;100993.59;;;24.30;48.11
70011;BME280;59543;37.950;-122.338;2023-10-19T02:09:07;100985.19;;;24.13;49.17
70011;BME280;59543;37.950;-122.338;2023-10-19T02:11:53;100994.50;;;23.93;48.64
70011;BME280;59543;37.950;-122.338;2023-10-19T02:14:24;100996.88;;;23.90;48.50
70011;BME280;59543;37.950;-122.338;2023-10-19T02:16:53;100997.28;;;23.75;48.79
70011;BME280;59543;37.950;-122.338;2023-10-19T02:19:23;100999.09;;;23.81;47.83
70011;BME280;59543;37.950;-122.338;2023-10-19T02:21:56;101004.97;;;23.66;48.31
70011;BME280;59543;37.950;-122.338;2023-10-19T02:24:23;100994.53;;;23.75;48.66
70011;BME280;59543;37.950;-122.338;2023-10-19T02:26:52;101004.50;;;23.51;48.77
70011;BME280;59543;37.950;-122.338;2023-10-19T02:29:19;101007.63;;;23.36;49.86
70011;BME280;59543;37.950;-122.338;2023-10-19T02:31:47;101007.69;;;23.30;50.39
70011;BME280;59543;37.950;-122.338;2023-10-19T02:34:14;101009.34;;;23.12;51.92
70011;BME280;59543;37.950;-122.338;2023-10-19T02:36:42;101012.66;;;22.89;51.33
70011;BME280;59543;37.950;-122.338;2023-10-19T02:39:11;101006.72;;;22.99;51.20
70011;BME280;59543;37.950;-122.338;2023-10-19T02:41:41;101010.69;;;22.71;52.49
70011;BME280;59543;37.950;-122.338;2023-10-19T02:44:14;101021.31;;;22.61;52.74
70011;BME280;59543;37.950;-122.338;2023-10-19T11:54:55;101149.66;;;15.31;85.74
70011;BME280;59543;37.950;-122.338;2023-10-19T11:57:23;101145.78;;;15.42;84.84
70011;BME280;59543;37.950;-122.338;2023-10-19T11:59:49;101152.56;;;15.38;85.60
70011;BME280;59543;37.950;-122.338;2023-10-19T12:02:21;101155.59;;;15.43;85.41
70011;BME280;59543;37.950;-122.338;2023-10-19T12:04:47;101163.56;;;15.52;84.36
70011;BME280;59543;37.950;-122.338;2023-10-19T12:07:14;101156.59;;;15.66;82.23
70011;BME280;59543;37.950;-122.338;2023-10-19T12:09:40;101151.00;;;15.76;80.29
70011;BME280;59543;37.950;-122.338;2023-10-19T12:12:11;101153.56;;;15.77;79.00
70011;BME280;59543;37.950;-122.338;2023-10-19T12:14:37;101159.47;;;15.73;79.65
70011;BME280;59543;37.950;-122.338;2023-10-19T12:17:04;101152.19;;;15.82;79.74
70011;BME280;59543;37.950;-122.338;2023-10-19T12:19:33;101154.22;;;15.80;79.58
70011;BME280;59543;37.950;-122.338;2023-10-19T12:22:00;101143.72;;;15.60;79.37
70011;BME280;59543;37.950;-122.338;2023-10-19T12:24:28;101137.25;;;15.61;79.69
70011;BME280;59543;37.950;-122.338;2023-10-19T12:26:55;101136.97;;;15.40;79.95
70011;BME280;59543;37.950;-122.338;2023-10-19T12:29:22;101145.25;;;15.54;79.29
70011;BME280;59543;37.950;-122.338;2023-10-19T12:31:48;101124.63;;;15.29;79.62
70011;BME280;59543;37.950;-122.338;2023-10-19T12:34:14;101144.41;;;15.46;79.81
70011;BME280;59543;37.950;-122.338;2023-10-19T12:36:42;101158.50;;;15.49;79.81
70011;BME280;59543;37.950;-122.338;2023-10-19T12:39:12;101152.72;;;15.44;79.83
70011;BME280;59543;37.950;-122.338;2023-10-19T12:41:58;101154.06;;;15.48;79.69
70011;BME280;59543;37.950;-122.338;2023-10-19T12:44:25;101144.75;;;15.59;78.92
70011;BME280;59543;37.950;-122.338;2023-10-19T12:46:54;101155.28;;;15.70;78.65
70011;BME280;59543;37.950;-122.338;2023-10-19T12:49:21;101148.31;;;15.68;78.48
70011;BME280;59543;37.950;-122.338;2023-10-19T12:51:52;101151.19;;;15.74;77.96
70011;BME280;59543;37.950;-122.338;2023-10-19T12:54:18;101147.63;;;15.74;78.23
70011;BME280;59543;37.950;-122.338;2023-10-19T12:56:44;101153.22;;;15.72;78.43
70011;BME280;59543;37.950;-122.338;2023-10-19T12:59:14;101156.59;;;15.74;78.04
70011;BME280;59543;37.950;-122.338;2023-10-19T13:01:43;101154.06;;;15.73;78.41
70011;BME280;59543;37.950;-122.338;2023-10-19T13:04:14;101162.00;;;15.66;78.46
70011;BME280;59543;37.950;-122.338;2023-10-19T13:06:44;101169.47;;;15.64;78.98
70011;BME280;59543;37.950;-122.338;2023-10-19T13:09:13;101166.28;;;15.52;79.53
70011;BME280;59543;37.950;-122.338;2023-10-19T13:11:42;101176.78;;;15.55;79.53
70011;BME280;59543;37.950;-122.338;2023-10-19T13:14:09;101173.88;;;15.57;79.46
70011;BME280;59543;37.950;-122.338;2023-10-19T13:16:37;101178.47;;;15.57;79.77
70011;BME280;59543;37.950;-122.338;2023-10-19T13:19:04;101178.28;;;15.66;79.72
70011;BME280;59543;37.950;-122.338;2023-10-19T13:21:53;101186.94;;;15.78;79.39
70011;BME280;59543;37.950;-122.338;2023-10-19T13:24:20;101189.66;;;15.78;79.33
70011;BME280;59543;37.950;-122.338;2023-10-19T13:26:47;101193.56;;;15.75;79.20
70011;BME280;59543;37.950;-122.338;2023-10-19T13:29:14;101191.16;;;15.64;79.47
70011;BME280;59543;37.950;-122.338;2023-10-19T13:31:41;101191.34;;;15.54;79.93
70011;BME280;59543;37.950;-122.338;2023-10-19T13:34:17;101189.31;;;15.57;79.93
70011;BME280;59543;37.950;-122.338;2023-10-19T13:36:43;101188.97;;;15.51;80.12
70011;BME280;59543;37.950;-122.338;2023-10-19T13:39:13;101180.19;;;15.49;80.40
70011;BME280;59543;37.950;-122.338;2023-10-19T13:41:42;101186.59;;;15.48;80.11
70011;BME280;59543;37.950;-122.338;2023-10-19T13:44:09;101186.78;;;15.39;80.96
70011;BME280;59543;37.950;-122.338;2023-10-19T13:46:37;101186.28;;;15.35;81.09
70011;BME280;59543;37.950;-122.338;2023-10-19T13:49:03;101192.72;;;15.26;81.80
70011;BME280;59543;37.950;-122.338;2023-10-19T13:51:31;101192.53;;;15.11;82.72
70011;BME280;59543;37.950;-122.338;2023-10-19T13:53:58;101191.84;;;15.17;82.70
70011;BME280;59543;37.950;-122.338;2023-10-19T13:56:25;101186.78;;;15.22;82.31
70011;BME280;59543;37.950;-122.338;2023-10-19T13:58:52;101191.16;;;15.07;83.28
70011;BME280;59543;37.950;-122.338;2023-10-19T14:01:18;101187.25;;;14.93;84.03
70011;BME280;59543;37.950;-122.338;2023-10-19T14:03:46;101191.97;;;14.91;84.17
70011;BME280;59543;37.950;-122.338;2023-10-19T14:06:13;101195.75;;;14.98;83.41
70011;BME280;59543;37.950;-122.338;2023-10-19T14:08:39;101174.56;;;14.94;83.70
70011;BME280;59543;37.950;-122.338;2023-10-19T14:11:05;101200.81;;;15.09;83.06
70011;BME280;59543;37.950;-122.338;2023-10-19T14:13:34;101203.50;;;14.93;83.15
70011;BME280;59543;37.950;-122.338;2023-10-19T14:16:08;101191.13;;;14.82;84.02
70011;BME280;59543;37.950;-122.338;2023-10-19T14:18:37;101206.84;;;14.79;84.49
70011;BME280;59543;37.950;-122.338;2023-10-19T14:21:12;101199.03;;;14.68;85.09
70011;BME280;59543;37.950;-122.338;2023-10-19T14:23:39;101199.16;;;14.58;85.67
70011;BME280;59543;37.950;-122.338;2023-10-19T14:26:06;101207.00;;;14.69;85.14
70011;BME280;59543;37.950;-122.338;2023-10-19T14:28:35;101214.94;;;14.62;85.05
70011;BME280;59543;37.950;-122.338;2023-10-19T14:31:02;101219.00;;;14.67;84.86
70011;BME280;59543;37.950;-122.338;2023-10-19T14:33:33;101196.41;;;14.50;85.33
70011;BME280;59543;37.950;-122.338;2023-10-19T14:36:02;101214.41;;;14.59;85.58
70011;BME280;59543;37.950;-122.338;2023-10-19T14:38:28;101203.28;;;14.70;85.26
70011;BME280;59543;37.950;-122.338;2023-10-19T14:40:55;101218.31;;;14.56;86.00
70011;BME280;59543;37.950;-122.338;2023-10-19T14:43:21;101212.72;;;14.58;86.62
70011;BME280;59543;37.950;-122.338;2023-10-19T14:45:47;101213.66;;;14.91;86.17
70011;BME280;59543;37.950;-122.338;2023-10-19T14:48:13;101212.50;;;15.02;86.99
70011;BME280;59543;37.950;-122.338;2023-10-19T14:50:40;101215.25;;;15.26;86.00
70011;BME280;59543;37.950;-122.338;2023-10-19T14:53:08;101224.38;;;15.33;85.57
70011;BME280;59543;37.950;-122.338;2023-10-19T14:55:35;101217.25;;;15.49;84.73
70011;BME280;59543;37.950;-122.338;2023-10-19T14:58:01;101221.16;;;15.54;84.76
70011;BME280;59543;37.950;-122.338;2023-10-19T15:00:28;101211.50;;;15.52;84.73
70011;BME280;59543;37.950;-122.338;2023-10-19T15:02:57;101224.06;;;15.69;84.33
70011;BME280;59543;37.950;-122.338;2023-10-19T15:05:28;101218.63;;;15.61;84.96
70011;BME280;59543;37.950;-122.338;2023-10-19T15:07:55;101223.56;;;15.74;84.69
70011;BME280;59543;37.950;-122.338;2023-10-19T15:10:26;101221.19;;;15.87;84.17
70011;BME280;59543;37.950;-122.338;2023-10-19T15:12:54;101224.22;;;16.00;85.59
70011;BME280;59543;37.950;-122.338;2023-10-19T15:15:22;101234.19;;;16.16;86.69
70011;BME280;59543;37.950;-122.338;2023-10-19T15:17:48;101236.50;;;16.36;87.35
70011;BME280;59543;37.950;-122.338;2023-10-19T15:20:24;101241.03;;;16.52;87.39
70011;BME280;59543;37.950;-122.338;2023-10-19T15:22:51;101237.06;;;16.62;87.10
70011;BME280;59543;37.950;-122.338;2023-10-19T15:25:18;101239.41;;;16.74;84.90
70011;BME280;59543;37.950;-122.338;2023-10-19T15:27:46;101241.09;;;16.83;85.31
70011;BME280;59543;37.950;-122.338;2023-10-19T15:30:16;101246.47;;;16.91;83.91
70011;BME280;59543;37.950;-122.338;2023-10-19T15:32:44;101245.97;;;16.87;82.89
70011;BME280;59543;37.950;-122.338;2023-10-19T15:35:12;101248.66;;;16.96;81.83
70011;BME280;59543;37.950;-122.338;2023-10-19T15:37:39;101251.72;;;16.92;82.53
70011;BME280;59543;37.950;-122.338;2023-10-19T15:40:07;101251.13;;;17.05;83.45
70011;BME280;59543;37.950;-122.338;2023-10-19T15:42:41;101259.66;;;17.02;84.53
70011;BME280;59543;37.950;-122.338;2023-10-19T15:45:15;101256.38;;;17.15;84.75
70011;BME280;59543;37.950;-122.338;2023-10-19T15:47:45;101257.13;;;17.24;83.87
70011;BME280;59543;37.950;-122.338;2023-10-19T15:50:15;101253.94;;;17.43;82.59
70011;BME280;59543;37.950;-122.338;2023-10-19T15:52:43;101262.78;;;17.45;82.17
70011;BME280;59543;37.950;-122.338;2023-10-19T15:55:11;101256.63;;;17.51;82.23
70011;BME280;59543;37.950;-122.338;2023-10-19T15:57:41;101255.78;;;17.66;80.40
70011;BME280;59543;37.950;-122.338;2023-10-19T16:00:10;101266.53;;;17.90;78.37
70011;BME280;59543;37.950;-122.338;2023-10-19T16:02:39;101266.19;;;18.08;76.91
70011;BME280;59543;37.950;-122.338;2023-10-19T16:05:06;101267.13;;;18.15;76.68
70011;BME280;59543;37.950;-122.338;2023-10-19T16:07:34;101271.44;;;18.24;76.23
70011;BME280;59543;37.950;-122.338;2023-10-19T16:10:03;101268.66;;;18.47;75.85
70011;BME280;59543;37.950;-122.338;2023-10-19T16:12:30;101273.03;;;18.63;75.25
70011;BME280;59543;37.950;-122.338;2023-10-19T16:14:57;101273.06;;;18.78;76.55
70011;BME280;59543;37.950;-122.338;2023-10-19T16:17:23;101273.50;;;18.96;77.38
70011;BME280;59543;37.950;-122.338;2023-10-19T16:19:51;101274.78;;;19.01;77.93
70011;BME280;59543;37.950;-122.338;2023-10-19T16:22:17;101265.47;;;19.31;76.58
70011;BME280;59543;37.950;-122.338;2023-10-19T16:24:43;101263.41;;;19.55;75.85
70011;BME280;59543;37.950;-122.338;2023-10-19T16:27:09;101265.88;;;19.64;74.95
70011;BME280;59543;37.950;-122.338;2023-10-19T16:29:36;101267.88;;;19.77;74.03
70011;BME280;59543;37.950;-122.338;2023-10-19T16:32:03;101263.03;;;20.01;73.32
70011;BME280;59543;37.950;-122.338;2023-10-19T16:34:30;101264.22;;;20.26;72.33
70011;BME280;59543;37.950;-122.338;2023-10-19T16:36:56;101268.25;;;20.30;71.51
70011;BME280;59543;37.950;-122.338;2023-10-19T16:39:23;101276.31;;;20.45;71.38
70011;BME280;59543;37.950;-122.338;2023-10-19T16:41:49;101275.41;;;20.60;70.82
70011;BME280;59543;37.950;-122.338;2023-10-19T16:44:16;101278.81;;;20.68;70.00
70011;BME280;59543;37.950;-122.338;2023-10-19T16:46:43;101273.59;;;20.73;69.65
70011;BME280;59543;37.950;-122.338;2023-10-19T16:49:10;101280.28;;;20.71;69.55
70011;BME280;59543;37.950;-122.338;2023-10-19T16:51:36;101288.16;;;20.87;69.34
70011;BME280;59543;37.950;-122.338;2023-10-19T16:54:09;101281.91;;;21.00;68.29
70011;BME280;59543;37.950;-122.338;2023-10-19T16:56:37;101276.72;;;21.32;67.10
70011;BME280;59543;37.950;-122.338;2023-10-19T16:59:06;101281.22;;;21.53;66.24
70011;BME280;59543;37.950;-122.338;2023-10-19T17:01:33;101281.66;;;21.63;65.29
70011;BME280;59543;37.950;-122.338;2023-10-19T17:04:00;101277.03;;;21.90;64.11
70011;BME280;59543;37.950;-122.338;2023-10-19T17:06:27;101273.03;;;22.06;63.08
70011;BME280;59543;37.950;-122.338;2023-10-19T17:08:53;101277.38;;;22.60;57.68
70011;BME280;59543;37.950;-122.338;2023-10-19T17:11:20;101270.72;;;23.01;54.70
70011;BME280;59543;37.950;-122.338;2023-10-19T17:13:46;101277.00;;;23.46;50.91
70011;BME280;59543;37.950;-122.338;2023-10-19T17:16:14;101274.78;;;23.93;48.77
70011;BME280;59543;37.950;-122.338;2023-10-19T17:18:41;101275.53;;;24.26;47.80
70011;BME280;59543;37.950;-122.338;2023-10-19T17:21:07;101279.34;;;24.50;46.63
70011;BME280;59543;37.950;-122.338;2023-10-19T17:23:33;101276.50;;;24.75;45.18
70011;BME280;59543;37.950;-122.338;2023-10-19T17:26:01;101273.72;;;24.93;44.88
70011;BME280;59543;37.950;-122.338;2023-10-19T17:28:27;101275.59;;;25.29;44.15
70011;BME280;59543;37.950;-122.338;2023-10-19T17:30:53;101269.53;;;25.39;43.16
70011;BME280;59543;37.950;-122.338;2023-10-19T17:33:20;101272.91;;;25.53;42.44
70011;BME280;59543;37.950;-122.338;2023-10-19T17:35:47;101267.31;;;25.71;42.59
70011;BME280;59543;37.950;-122.338;2023-10-19T17:38:15;101263.31;;;25.86;41.81
70011;BME280;59543;37.950;-122.338;2023-10-19T17:40:41;101267.66;;;25.93;41.49
70011;BME280;59543;37.950;-122.338;2023-10-19T17:43:08;101263.56;;;25.96;41.35
70011;BME280;59543;37.950;-122.338;2023-10-19T17:45:36;101256.88;;;26.15;40.97
70011;BME280;59543;37.950;-122.338;2023-10-19T17:48:03;101259.63;;;26.27;40.99
70011;BME280;59543;37.950;-122.338;2023-10-19T17:50:30;101255.78;;;26.52;40.31
70011;BME280;59543;37.950;-122.338;2023-10-19T17:53:00;101270.38;;;26.64;40.12
70011;BME280;59543;37.950;-122.338;2023-10-19T17:55:26;101259.78;;;26.84;40.20
70011;BME280;59543;37.950;-122.338;2023-10-19T17:57:53;101259.53;;;26.86;39.79
70011;BME280;59543;37.950;-122.338;2023-10-19T18:00:19;101264.06;;;26.92;38.83
70011;BME280;59543;37.950;-122.338;2023-10-19T18:02:45;101265.16;;;26.91;38.86
70011;BME280;59543;37.950;-122.338;2023-10-19T18:05:12;101255.00;;;27.08;39.06
70011;BME280;59543;37.950;-122.338;2023-10-19T18:07:40;101251.31;;;27.31;38.93
70011;BME280;59543;37.950;-122.338;2023-10-19T18:10:07;101250.31;;;27.38;37.75
70011;BME280;59543;37.950;-122.338;2023-10-19T18:12:34;101250.75;;;27.46;37.55
70011;BME280;59543;37.950;-122.338;2023-10-19T18:15:01;101254.50;;;27.40;37.57
70011;BME280;59543;37.950;-122.338;2023-10-19T18:17:27;101249.13;;;27.62;37.47
70011;BME280;59543;37.950;-122.338;2023-10-19T18:19:53;101249.44;;;27.66;37.72
70011;BME280;59543;37.950;-122.338;2023-10-19T18:22:20;101249.59;;;27.76;36.48
70011;BME280;59543;37.950;-122.338;2023-10-19T18:24:46;101256.59;;;27.95;37.34
70011;BME280;59543;37.950;-122.338;2023-10-19T18:27:14;101247.47;;;27.78;35.94
70011;BME280;59543;37.950;-122.338;2023-10-19T18:29:41;101257.66;;;27.94;36.44
70011;BME280;59543;37.950;-122.338;2023-10-19T18:32:11;101250.81;;;27.97;36.11
70011;BME280;59543;37.950;-122.338;2023-10-19T18:34:37;101251.88;;;28.13;35.78
70011;BME280;59543;37.950;-122.338;2023-10-19T18:37:03;101251.81;;;28.08;36.11
70011;BME280;59543;37.950;-122.338;2023-10-19T18:39:31;101250.53;;;28.15;35.57
70011;BME280;59543;37.950;-122.338;2023-10-19T18:41:58;101251.53;;;28.26;35.15
70011;BME280;59543;37.950;-122.338;2023-10-19T18:44:24;101244.19;;;28.37;35.21
70011;BME280;59543;37.950;-122.338;2023-10-19T18:46:50;101242.53;;;28.36;35.23
70011;BME280;59543;37.950;-122.338;2023-10-19T18:49:16;101236.13;;;28.52;34.74
70011;BME280;59543;37.950;-122.338;2023-10-19T18:51:43;101244.81;;;28.61;34.94
70011;BME280;59543;37.950;-122.338;2023-10-19T18:54:09;101240.56;;;28.75;33.98
70011;BME280;59543;37.950;-122.338;2023-10-19T18:56:35;101252.47;;;28.76;33.84
70011;BME280;59543;37.950;-122.338;2023-10-19T18:59:03;101243.41;;;28.80;34.47
70011;BME280;59543;37.950;-122.338;2023-10-19T19:01:29;101231.16;;;28.76;33.91
70011;BME280;59543;37.950;-122.338;2023-10-19T19:03:55;101239.31;;;28.83;33.21
70011;BME280;59543;37.950;-122.338;2023-10-19T19:06:22;101234.00;;;29.03;33.46
70011;BME280;59543;37.950;-122.338;2023-10-19T19:08:48;101230.47;;;29.08;33.38
70011;BME280;59543;37.950;-122.338;2023-10-19T19:11:16;101227.06;;;29.28;32.92
70011;BME280;59543;37.950;-122.338;2023-10-19T19:13:43;101244.22;;;29.25;32.48
70011;BME280;59543;37.950;-122.338;2023-10-19T19:16:10;101237.63;;;29.31;32.50
70011;BME280;59543;37.950;-122.338;2023-10-19T19:18:41;101233.81;;;29.37;32.61
70011;BME280;59543;37.950;-122.338;2023-10-19T19:21:08;101231.72;;;29.49;32.15
70011;BME280;59543;37.950;-122.338;2023-10-19T19:23:35;101231.03;;;29.64;31.95
70011;BME280;59543;37.950;-122.338;2023-10-19T19:26:02;101217.91;;;29.59;32.16
70011;BME280;59543;37.950;-122.338;2023-10-19T19:28:29;101217.94;;;29.92;32.59
70011;BME280;59543;37.950;-122.338;2023-10-19T19:31:01;101210.91;;;29.84;31.51
70011;BME280;59543;37.950;-122.338;2023-10-19T19:33:28;101208.47;;;29.88;31.81
70011;BME280;59543;37.950;-122.338;2023-10-19T19:35:55;101198.69;;;29.80;31.83
70011;BME280;59543;37.950;-122.338;2023-10-19T19:38:24;101194.63;;;29.93;31.32
70011;BME280;59543;37.950;-122.338;2023-10-19T19:40:50;101190.72;;;29.89;31.46
70011;BME280;59543;37.950;-122.338;2023-10-19T19:43:19;101185.03;;;30.11;31.16
70011;BME280;59543;37.950;-122.338;2023-10-19T19:45:46;101183.72;;;30.23;30.58
70011;BME280;59543;37.950;-122.338;2023-10-19T19:48:13;101188.22;;;30.35;30.46
70011;BME280;59543;37.950;-122.338;2023-10-19T19:50:40;101173.16;;;30.20;30.52
70011;BME280;59543;37.950;-122.338;2023-10-19T19:53:10;101168.78;;;30.29;30.14
70011;BME280;59543;37.950;-122.338;2023-10-19T19:55:40;101170.81;;;30.49;30.41
70011;BME280;59543;37.950;-122.338;2023-10-19T19:58:07;101161.06;;;30.47;30.20
70011;BME280;59543;37.950;-122.338;2023-10-19T20:00:34;101161.66;;;30.49;30.37
70011;BME280;59543;37.950;-122.338;2023-10-19T20:03:01;101160.81;;;30.53;29.98
70011;BME280;59543;37.950;-122.338;2023-10-19T20:05:30;101156.13;;;30.54;30.16
70011;BME280;59543;37.950;-122.338;2023-10-19T20:08:00;101153.72;;;30.98;29.61
70011;BME280;59543;37.950;-122.338;2023-10-19T20:10:37;101145.69;;;30.92;29.44
70011;BME280;59543;37.950;-122.338;2023-10-19T20:13:05;101144.03;;;31.01;28.87
70011;BME280;59543;37.950;-122.338;2023-10-19T20:15:33;101135.69;;;31.01;28.55
70011;BME280;59543;37.950;-122.338;2023-10-19T20:18:00;101140.97;;;31.13;28.97
70011;BME280;59543;37.950;-122.338;2023-10-19T20:20:26;101125.69;;;31.15;29.07
70011;BME280;59543;37.950;-122.338;2023-10-19T20:22:55;101128.50;;;31.20;28.45
70011;BME280;59543;37.950;-122.338;2023-10-19T20:25:25;101119.56;;;31.34;27.96
70011;BME280;59543;37.950;-122.338;2023-10-19T20:27:53;101108.19;;;31.40;28.03
70011;BME280;59543;37.950;-122.338;2023-10-19T20:30:20;101102.91;;;31.54;27.63
70011;BME280;59543;37.950;-122.338;2023-10-19T20:32:48;101095.13;;;31.56;27.47
70011;BME280;59543;37.950;-122.338;2023-10-19T20:35:16;101103.19;;;31.32;28.18
70011;BME280;59543;37.950;-122.338;2023-10-19T20:37:46;101095.13;;;31.56;28.15
70011;BME280;59543;37.950;-122.338;2023-10-19T20:40:14;101087.34;;;31.48;27.21
70011;BME280;59543;37.950;-122.338;2023-10-19T20:42:48;101082.88;;;31.62;27.12
70011;BME280;59543;37.950;-122.338;2023-10-19T20:45:15;101080.34;;;31.71;27.28
70011;BME280;59543;37.950;-122.338;2023-10-19T20:47:51;101085.91;;;31.66;27.34
70011;BME280;59543;37.950;-122.338;2023-10-19T20:50:24;101074.50;;;31.73;26.44
70011;BME280;59543;37.950;-122.338;2023-10-19T20:52:52;101084.28;;;31.55;26.67
70011;BME280;59543;37.950;-122.338;2023-10-19T20:55:19;101064.22;;;31.68;26.75
70011;BME280;59543;37.950;-122.338;2023-10-19T20:57:46;101079.50;;;31.76;27.20
70011;BME280;59543;37.950;-122.338;2023-10-19T21:00:13;101065.03;;;31.79;26.87
70011;BME280;59543;37.950;-122.338;2023-10-19T21:02:40;101061.41;;;31.78;27.03
70011;BME280;59543;37.950;-122.338;2023-10-19T21:05:08;101057.50;;;31.79;27.12
70011;BME280;59543;37.950;-122.338;2023-10-19T21:07:40;101043.28;;;31.86;26.55
70011;BME280;59543;37.950;-122.338;2023-10-19T21:10:08;101057.13;;;32.11;26.67
70011;BME280;59543;37.950;-122.338;2023-10-19T21:12:40;101046.72;;;32.27;26.38
70011;BME280;59543;37.950;-122.338;2023-10-19T21:15:08;101041.06;;;32.43;25.93
70011;BME280;59543;37.950;-122.338;2023-10-19T21:17:57;101045.78;;;32.52;26.79
70011;BME280;59543;37.950;-122.338;2023-10-19T21:20:23;101040.81;;;32.49;25.80
70011;BME280;59543;37.950;-122.338;2023-10-19T21:22:51;101036.75;;;32.71;26.11
70011;BME280;59543;37.950;-122.338;2023-10-19T21:25:19;101022.75;;;32.76;25.88
70011;BME280;59543;37.950;-122.338;2023-10-19T21:27:45;101014.38;;;32.81;26.06
70011;BME280;59543;37.950;-122.338;2023-10-19T21:30:13;101009.03;;;32.85;26.18
70011;BME280;59543;37.950;-122.338;2023-10-19T21:32:45;101017.03;;;32.91;25.55
70011;BME280;59543;37.950;-122.338;2023-10-19T21:35:14;101011.56;;;32.81;25.12
70011;BME280;59543;37.950;-122.338;2023-10-19T21:37:41;101007.81;;;32.96;25.88
70011;BME280;59543;37.950;-122.338;2023-10-19T21:40:07;101009.22;;;32.98;25.89